sensor_id;sensor_type;location;lat;lon;timestamp;pressure;altitude;pressure_sealevel;temperature;humidity
14790;BME280;7486;51.010;10.366;2023-04-28T00:02:07;98334.75;;;4.67;61.75
14790;BME280;7486;51.010;10.366;2023-04-28T00:04:52;98310.78;;;4.62;62.12
14790;BME280;7486;51.010;10.366;2023-04-28T00:07:38;98331.44;;;4.74;62.58
14790;BME280;7486;51.010;10.366;2023-04-28T00:10:23;98333.44;;;4.63;62.86
14790;BME280;7486;51.010;10.366;2023-04-28T00:13:09;98331.16;;;4.68;62.39
14790;BME280;7486;51.010;10.366;2023-04-28T00:15:54;98323.75;;;4.56;63.06
14790;BME280;7486;51.010;10.366;2023-04-28T00:18:40;98327.69;;;4.68;63.29
14790;BME280;7486;51.010;10.366;2023-04-28T00:21:25;98324.88;;;4.69;62.67
14790;BME280;7486;51.010;10.366;2023-04-28T00:24:10;98319.34;;;4.64;62.78
14790;BME280;7486;51.010;10.366;2023-04-28T00:26:56;98309.34;;;4.68;62.64
14790;BME280;7486;51.010;10.366;2023-04-28T00:29:41;98288.19;;;4.61;62.06
14790;BME280;7486;51.010;10.366;2023-04-28T00:32:29;98306.75;;;4.52;62.61
14790;BME280;7486;51.010;10.366;2023-04-28T00:35:14;98303.25;;;4.67;62.20
14790;BME280;7486;51.010;10.366;2023-04-28T00:37:59;98297.38;;;4.65;62.78
14790;BME280;7486;51.010;10.366;2023-04-28T00:40:45;98297.63;;;4.87;61.53
14790;BME280;7486;51.010;10.366;2023-04-28T00:43:30;98297.63;;;4.87;61.68
14790;BME280;7486;51.010;10.366;2023-04-28T00:46:29;98246.03;;;4.63;61.43
14790;BME280;7486;51.010;10.366;2023-04-28T00:49:15;98297.09;;;5.15;60.71
14790;BME280;7486;51.010;10.366;2023-04-28T00:52:04;98291.34;;;5.20;60.53
14790;BME280;7486;51.010;10.366;2023-04-28T00:54:49;98285.28;;;5.20;60.88
14790;BME280;7486;51.010;10.366;2023-04-28T00:57:35;98274.00;;;5.03;60.76
14790;BME280;7486;51.010;10.366;2023-04-28T01:00:20;98248.38;;;5.05;60.39
14790;BME280;7486;51.010;10.366;2023-04-28T01:03:06;98282.19;;;5.16;60.58
14790;BME280;7486;51.010;10.366;2023-04-28T01:05:52;98274.00;;;5.03;60.79
14790;BME280;7486;51.010;10.366;2023-04-28T01:08:38;98299.38;;;5.18;60.28
14790;BME280;7486;51.010;10.366;2023-04-28T01:11:30;98287.13;;;5.03;61.25
14790;BME280;7486;51.010;10.366;2023-04-28T01:14:26;98285.47;;;4.94;61.81
14790;BME280;7486;51.010;10.366;2023-04-28T01:17:12;98260.78;;;4.72;60.30
14790;BME280;7486;51.010;10.366;2023-04-28T01:19:58;98279.88;;;4.97;61.30
14790;BME280;7486;51.010;10.366;2023-04-28T01:22:43;98278.91;;;4.98;61.41
14790;BME280;7486;51.010;10.366;2023-04-28T01:25:29;98280.50;;;5.07;61.01
14790;BME280;7486;51.010;10.366;2023-04-28T01:28:14;98280.84;;;5.04;61.28
14790;BME280;7486;51.010;10.366;2023-04-28T01:31:00;98277.72;;;5.08;61.31
14790;BME280;7486;51.010;10.366;2023-04-28T01:33:45;98262.13;;;5.07;61.48
14790;BME280;7486;51.010;10.366;2023-04-28T01:36:33;98250.41;;;4.87;61.51
14790;BME280;7486;51.010;10.366;2023-04-28T01:39:21;98252.53;;;4.91;61.68
14790;BME280;7486;51.010;10.366;2023-04-28T01:42:07;98253.38;;;4.84;62.48
14790;BME280;7486;51.010;10.366;2023-04-28T01:44:52;98244.22;;;4.72;62.33
14790;BME280;7486;51.010;10.366;2023-04-28T01:47:38;98211.84;;;4.40;62.78
14790;BME280;7486;51.010;10.366;2023-04-28T01:50:23;98236.31;;;4.80;62.74
14790;BME280;7486;51.010;10.366;2023-04-28T01:53:08;98237.25;;;5.03;61.30
14790;BME280;7486;51.010;10.366;2023-04-28T01:55:54;98238.34;;;5.08;61.14
14790;BME280;7486;51.010;10.366;2023-04-28T01:58:39;98168.16;;;4.72;61.52
14790;BME280;7486;51.010;10.366;2023-04-28T02:01:25;98235.06;;;5.14;61.22
14790;BME280;7486;51.010;10.366;2023-04-28T02:04:12;98235.88;;;5.07;61.45
14790;BME280;7486;51.010;10.366;2023-04-28T02:07:00;98228.22;;;4.97;62.27
14790;BME280;7486;51.010;10.366;2023-04-28T02:09:46;98162.13;;;4.55;62.22
14790;BME280;7486;51.010;10.366;2023-04-28T02:12:31;98226.13;;;4.93;62.31
14790;BME280;7486;51.010;10.366;2023-04-28T02:15:16;98213.56;;;4.72;62.47
14790;BME280;7486;51.010;10.366;2023-04-28T02:18:02;98229.44;;;4.79;62.83
14790;BME280;7486;51.010;10.366;2023-04-28T02:20:47;98216.41;;;4.54;63.51
14790;BME280;7486;51.010;10.366;2023-04-28T02:23:32;98225.44;;;4.52;63.69
14790;BME280;7486;51.010;10.366;2023-04-28T02:26:18;98222.94;;;4.58;63.39
14790;BME280;7486;51.010;10.366;2023-04-28T02:29:03;98224.72;;;4.66;63.82
14790;BME280;7486;51.010;10.366;2023-04-28T02:31:50;98223.44;;;4.54;63.39
14790;BME280;7486;51.010;10.366;2023-04-28T02:34:35;98211.97;;;4.55;63.85
14790;BME280;7486;51.010;10.366;2023-04-28T02:37:21;98211.31;;;4.53;63.40
14790;BME280;7486;51.010;10.366;2023-04-28T02:40:07;98203.72;;;4.66;63.62
14790;BME280;7486;51.010;10.366;2023-04-28T02:42:52;98208.69;;;4.61;63.50
14790;BME280;7486;51.010;10.366;2023-04-28T02:45:37;98213.25;;;4.59;63.58
14790;BME280;7486;51.010;10.366;2023-04-28T02:48:24;98193.34;;;4.34;64.54
14790;BME280;7486;51.010;10.366;2023-04-28T02:51:10;98207.91;;;4.36;64.68
14790;BME280;7486;51.010;10.366;2023-04-28T02:53:56;98202.31;;;4.39;63.91
14790;BME280;7486;51.010;10.366;2023-04-28T02:56:41;98194.81;;;4.28;65.26
14790;BME280;7486;51.010;10.366;2023-04-28T02:59:26;98152.91;;;3.96;64.73
14790;BME280;7486;51.010;10.366;2023-04-28T03:02:11;98188.59;;;4.21;64.85
14790;BME280;7486;51.010;10.366;2023-04-28T03:04:57;98184.53;;;3.86;66.90
14790;BME280;7486;51.010;10.366;2023-04-28T03:07:42;98170.28;;;3.81;66.63
14790;BME280;7486;51.010;10.366;2023-04-28T03:10:28;98148.34;;;3.74;67.15
14790;BME280;7486;51.010;10.366;2023-04-28T03:13:13;98168.31;;;3.91;67.22
14790;BME280;7486;51.010;10.366;2023-04-28T03:16:00;98164.41;;;3.87;66.78
14790;BME280;7486;51.010;10.366;2023-04-28T03:18:45;98142.09;;;3.91;66.62
14790;BME280;7486;51.010;10.366;2023-04-28T03:21:30;98161.09;;;4.09;66.62
14790;BME280;7486;51.010;10.366;2023-04-28T03:24:15;98165.31;;;4.18;65.92
14790;BME280;7486;51.010;10.366;2023-04-28T03:27:01;98163.06;;;3.99;66.86
14790;BME280;7486;51.010;10.366;2023-04-28T03:29:47;98163.88;;;3.91;67.21
14790;BME280;7486;51.010;10.366;2023-04-28T03:32:32;98169.59;;;4.11;66.13
14790;BME280;7486;51.010;10.366;2023-04-28T03:35:17;98153.19;;;4.25;65.83
14790;BME280;7486;51.010;10.366;2023-04-28T03:38:03;98150.06;;;4.30;65.35
14790;BME280;7486;51.010;10.366;2023-04-28T03:40:48;98152.06;;;4.28;65.42
14790;BME280;7486;51.010;10.366;2023-04-28T03:43:54;98138.75;;;4.37;65.29
14790;BME280;7486;51.010;10.366;2023-04-28T03:46:48;98141.16;;;4.47;64.67
14790;BME280;7486;51.010;10.366;2023-04-28T03:49:34;98145.25;;;4.49;64.83
14790;BME280;7486;51.010;10.366;2023-04-28T03:52:20;98115.66;;;4.33;64.46
14790;BME280;7486;51.010;10.366;2023-04-28T03:55:06;98099.56;;;4.36;64.17
14790;BME280;7486;51.010;10.366;2023-04-28T03:57:52;98129.38;;;4.43;64.46
14790;BME280;7486;51.010;10.366;2023-04-28T04:00:37;98115.00;;;4.31;64.93
14790;BME280;7486;51.010;10.366;2023-04-28T04:03:23;98124.69;;;4.30;65.11
14790;BME280;7486;51.010;10.366;2023-04-28T04:06:09;98122.22;;;4.29;65.73
14790;BME280;7486;51.010;10.366;2023-04-28T04:08:55;98125.34;;;4.24;65.51
14790;BME280;7486;51.010;10.366;2023-04-28T04:11:40;98122.41;;;4.27;65.97
14790;BME280;7486;51.010;10.366;2023-04-28T04:14:25;98120.22;;;4.39;65.25
14790;BME280;7486;51.010;10.366;2023-04-28T04:17:11;98129.22;;;4.44;65.66
14790;BME280;7486;51.010;10.366;2023-04-28T04:19:57;98129.44;;;4.35;66.63
14790;BME280;7486;51.010;10.366;2023-04-28T04:22:43;98129.09;;;4.30;66.81
14790;BME280;7486;51.010;10.366;2023-04-28T04:25:29;98042.59;;;3.75;66.47
14790;BME280;7486;51.010;10.366;2023-04-28T04:28:15;98125.50;;;4.31;66.88
14790;BME280;7486;51.010;10.366;2023-04-28T04:31:00;98036.72;;;3.73;67.25
14790;BME280;7486;51.010;10.366;2023-04-28T04:33:47;98124.34;;;4.33;66.66
14790;BME280;7486;51.010;10.366;2023-04-28T04:36:34;98124.31;;;4.41;65.97
14790;BME280;7486;51.010;10.366;2023-04-28T04:39:19;98127.03;;;4.56;65.97
14790;BME280;7486;51.010;10.366;2023-04-28T04:42:05;98116.38;;;4.57;65.87
14790;BME280;7486;51.010;10.366;2023-04-28T04:45:22;98117.63;;;4.69;65.44
14790;BME280;7486;51.010;10.366;2023-04-28T04:48:08;98089.47;;;4.63;65.42
14790;BME280;7486;51.010;10.366;2023-04-28T04:50:54;98098.00;;;4.65;65.95
14790;BME280;7486;51.010;10.366;2023-04-28T04:53:39;98102.06;;;4.68;66.66
14790;BME280;7486;51.010;10.366;2023-04-28T04:56:25;98100.56;;;4.74;65.93
14790;BME280;7486;51.010;10.366;2023-04-28T04:59:12;98104.81;;;4.83;65.83
14790;BME280;7486;51.010;10.366;2023-04-28T05:02:24;98106.25;;;4.85;65.03
14790;BME280;7486;51.010;10.366;2023-04-28T05:05:10;98107.09;;;4.78;65.77
14790;BME280;7486;51.010;10.366;2023-04-28T05:08:10;98108.34;;;4.90;65.48
14790;BME280;7486;51.010;10.366;2023-04-28T05:10:56;98104.25;;;4.56;66.83
14790;BME280;7486;51.010;10.366;2023-04-28T05:13:42;98098.50;;;4.61;67.58
14790;BME280;7486;51.010;10.366;2023-04-28T05:16:27;98097.41;;;4.47;69.08
14790;BME280;7486;51.010;10.366;2023-04-28T05:19:24;98097.50;;;4.23;70.07
14790;BME280;7486;51.010;10.366;2023-04-28T05:22:09;98098.19;;;4.17;70.63
14790;BME280;7486;51.010;10.366;2023-04-28T05:24:55;98098.81;;;4.27;69.53
14790;BME280;7486;51.010;10.366;2023-04-28T05:27:40;98096.66;;;4.23;70.93
14790;BME280;7486;51.010;10.366;2023-04-28T05:30:26;98100.66;;;4.02;72.25
14790;BME280;7486;51.010;10.366;2023-04-28T05:33:12;98050.81;;;3.55;71.59
14790;BME280;7486;51.010;10.366;2023-04-28T05:35:58;98101.34;;;3.88;72.10
14790;BME280;7486;51.010;10.366;2023-04-28T05:38:43;98094.59;;;3.94;71.42
14790;BME280;7486;51.010;10.366;2023-04-28T05:41:29;98018.91;;;3.52;71.09
14790;BME280;7486;51.010;10.366;2023-04-28T05:44:14;98054.03;;;3.90;70.11
14790;BME280;7486;51.010;10.366;2023-04-28T05:46:59;98100.13;;;4.23;69.96
14790;BME280;7486;51.010;10.366;2023-04-28T05:49:45;98096.47;;;4.32;69.52
14790;BME280;7486;51.010;10.366;2023-04-28T05:52:31;98093.00;;;4.48;68.88
14790;BME280;7486;51.010;10.366;2023-04-28T05:55:17;98095.66;;;4.71;68.74
14790;BME280;7486;51.010;10.366;2023-04-28T05:58:02;98032.00;;;4.46;67.66
14790;BME280;7486;51.010;10.366;2023-04-28T06:00:48;98093.88;;;4.63;67.90
14790;BME280;7486;51.010;10.366;2023-04-28T06:03:34;98091.63;;;4.91;68.30
14790;BME280;7486;51.010;10.366;2023-04-28T06:06:20;98086.09;;;5.08;67.32
14790;BME280;7486;51.010;10.366;2023-04-28T06:09:06;98090.03;;;4.82;67.67
14790;BME280;7486;51.010;10.366;2023-04-28T06:11:51;98077.16;;;4.95;67.41
14790;BME280;7486;51.010;10.366;2023-04-28T06:14:37;98064.66;;;4.97;67.18
14790;BME280;7486;51.010;10.366;2023-04-28T06:17:22;98065.84;;;4.94;68.61
14790;BME280;7486;51.010;10.366;2023-04-28T06:20:08;98073.16;;;4.76;69.83
14790;BME280;7486;51.010;10.366;2023-04-28T06:22:54;98053.88;;;4.38;70.99
14790;BME280;7486;51.010;10.366;2023-04-28T06:25:39;98080.22;;;4.45;71.16
14790;BME280;7486;51.010;10.366;2023-04-28T06:28:25;98020.72;;;4.06;70.88
14790;BME280;7486;51.010;10.366;2023-04-28T06:31:11;98068.47;;;4.63;70.53
14790;BME280;7486;51.010;10.366;2023-04-28T06:33:56;98057.41;;;4.45;69.87
14790;BME280;7486;51.010;10.366;2023-04-28T06:36:41;98072.06;;;4.32;71.72
14790;BME280;7486;51.010;10.366;2023-04-28T06:39:27;98042.16;;;4.10;72.47
14790;BME280;7486;51.010;10.366;2023-04-28T06:42:13;98068.22;;;4.50;72.60
14790;BME280;7486;51.010;10.366;2023-04-28T06:44:59;98043.53;;;4.37;73.65
14790;BME280;7486;51.010;10.366;2023-04-28T06:47:45;98068.72;;;4.77;73.01
14790;BME280;7486;51.010;10.366;2023-04-28T06:50:30;98071.69;;;4.74;73.47
14790;BME280;7486;51.010;10.366;2023-04-28T06:53:16;98080.63;;;4.64;74.55
14790;BME280;7486;51.010;10.366;2023-04-28T06:56:02;98081.84;;;4.77;74.92
14790;BME280;7486;51.010;10.366;2023-04-28T06:58:47;98074.28;;;4.82;73.39
14790;BME280;7486;51.010;10.366;2023-04-28T07:01:33;98075.31;;;4.73;72.74
14790;BME280;7486;51.010;10.366;2023-04-28T07:04:18;98019.03;;;4.52;73.61
14790;BME280;7486;51.010;10.366;2023-04-28T07:07:05;98048.59;;;5.00;71.39
14790;BME280;7486;51.010;10.366;2023-04-28T07:09:50;98062.00;;;5.05;71.31
14790;BME280;7486;51.010;10.366;2023-04-28T07:12:35;98058.78;;;4.95;71.06
14790;BME280;7486;51.010;10.366;2023-04-28T07:15:21;98003.72;;;4.64;72.70
14790;BME280;7486;51.010;10.366;2023-04-28T07:18:07;98061.28;;;5.11;72.64
14790;BME280;7486;51.010;10.366;2023-04-28T07:20:52;98081.00;;;5.07;72.83
14790;BME280;7486;51.010;10.366;2023-04-28T07:23:38;98019.19;;;5.04;73.22
14790;BME280;7486;51.010;10.366;2023-04-28T07:26:23;98078.84;;;5.10;73.69
14790;BME280;7486;51.010;10.366;2023-04-28T07:29:08;98050.78;;;4.88;75.05
14790;BME280;7486;51.010;10.366;2023-04-28T07:31:54;98083.91;;;5.43;74.21
14790;BME280;7486;51.010;10.366;2023-04-28T07:34:39;98070.97;;;5.56;73.07
14790;BME280;7486;51.010;10.366;2023-04-28T07:37:25;98077.22;;;5.55;72.83
14790;BME280;7486;51.010;10.366;2023-04-28T07:40:11;98076.28;;;5.33;72.62
14790;BME280;7486;51.010;10.366;2023-04-28T07:42:56;98017.69;;;5.10;71.35
14790;BME280;7486;51.010;10.366;2023-04-28T07:45:41;98068.69;;;5.15;72.31
14790;BME280;7486;51.010;10.366;2023-04-28T07:48:27;98073.88;;;5.24;74.42
14790;BME280;7486;51.010;10.366;2023-04-28T07:51:13;98068.00;;;4.60;75.47
14790;BME280;7486;51.010;10.366;2023-04-28T07:53:58;98059.84;;;4.55;77.32
14790;BME280;7486;51.010;10.366;2023-04-28T07:56:44;98054.28;;;4.81;77.66
14790;BME280;7486;51.010;10.366;2023-04-28T07:59:29;98054.53;;;4.63;76.66
14790;BME280;7486;51.010;10.366;2023-04-28T08:02:14;98050.84;;;4.49;78.70
14790;BME280;7486;51.010;10.366;2023-04-28T08:04:59;98062.03;;;4.43;78.37
14790;BME280;7486;51.010;10.366;2023-04-28T08:07:45;98057.00;;;4.64;79.64
14790;BME280;7486;51.010;10.366;2023-04-28T08:10:30;98047.69;;;4.85;78.65
14790;BME280;7486;51.010;10.366;2023-04-28T08:13:15;98054.88;;;4.91;79.03
14790;BME280;7486;51.010;10.366;2023-04-28T08:16:02;98053.09;;;5.14;77.41
14790;BME280;7486;51.010;10.366;2023-04-28T08:18:47;98046.41;;;5.34;76.81
14790;BME280;7486;51.010;10.366;2023-04-28T08:21:32;98021.44;;;5.15;77.80
14790;BME280;7486;51.010;10.366;2023-04-28T08:24:18;98047.28;;;5.27;78.50
14790;BME280;7486;51.010;10.366;2023-04-28T08:27:03;98037.81;;;5.55;77.76
14790;BME280;7486;51.010;10.366;2023-04-28T08:29:48;98037.47;;;5.73;77.33
14790;BME280;7486;51.010;10.366;2023-04-28T08:32:34;98035.84;;;5.57;79.12
14790;BME280;7486;51.010;10.366;2023-04-28T08:35:20;98029.88;;;5.63;80.29
14790;BME280;7486;51.010;10.366;2023-04-28T08:38:06;98021.50;;;5.45;79.16
14790;BME280;7486;51.010;10.366;2023-04-28T08:40:51;98031.31;;;5.28;80.95
14790;BME280;7486;51.010;10.366;2023-04-28T08:43:37;97968.56;;;4.96;82.62
14790;BME280;7486;51.010;10.366;2023-04-28T08:46:22;97994.91;;;5.25;83.97
14790;BME280;7486;51.010;10.366;2023-04-28T08:49:15;98013.03;;;5.57;84.46
14790;BME280;7486;51.010;10.366;2023-04-28T08:52:01;98020.44;;;5.68;82.42
14790;BME280;7486;51.010;10.366;2023-04-28T08:54:48;98014.94;;;5.93;80.24
14790;BME280;7486;51.010;10.366;2023-04-28T08:57:42;97958.75;;;5.79;79.65
14790;BME280;7486;51.010;10.366;2023-04-28T09:00:28;98008.41;;;6.18;79.98
14790;BME280;7486;51.010;10.366;2023-04-28T09:03:14;98011.31;;;6.23;79.43
14790;BME280;7486;51.010;10.366;2023-04-28T09:06:00;97998.06;;;5.73;80.29
14790;BME280;7486;51.010;10.366;2023-04-28T09:08:46;98007.22;;;5.62;82.34
14790;BME280;7486;51.010;10.366;2023-04-28T09:11:31;97992.91;;;5.79;82.61
14790;BME280;7486;51.010;10.366;2023-04-28T09:14:17;98014.59;;;5.96;83.41
14790;BME280;7486;51.010;10.366;2023-04-28T09:17:13;98005.69;;;6.11;81.42
14790;BME280;7486;51.010;10.366;2023-04-28T09:19:59;98002.25;;;6.11;82.60
14790;BME280;7486;51.010;10.366;2023-04-28T09:22:45;98007.78;;;6.01;83.52
14790;BME280;7486;51.010;10.366;2023-04-28T09:25:30;97999.19;;;5.78;84.66
14790;BME280;7486;51.010;10.366;2023-04-28T09:28:20;97990.66;;;5.61;84.62
14790;BME280;7486;51.010;10.366;2023-04-28T09:31:05;97993.47;;;5.75;86.21
14790;BME280;7486;51.010;10.366;2023-04-28T09:34:01;97921.84;;;5.29;84.87
14790;BME280;7486;51.010;10.366;2023-04-28T09:36:46;97998.25;;;5.71;87.91
14790;BME280;7486;51.010;10.366;2023-04-28T09:39:32;97993.72;;;6.09;86.47
14790;BME280;7486;51.010;10.366;2023-04-28T09:42:41;97996.25;;;6.17;84.25
14790;BME280;7486;51.010;10.366;2023-04-28T09:45:38;97992.19;;;6.00;82.71
14790;BME280;7486;51.010;10.366;2023-04-28T09:48:34;97991.09;;;6.09;84.03
14790;BME280;7486;51.010;10.366;2023-04-28T09:51:20;97980.47;;;6.17;84.02
14790;BME280;7486;51.010;10.366;2023-04-28T09:54:05;97985.53;;;6.33;83.79
14790;BME280;7486;51.010;10.366;2023-04-28T09:56:51;97927.16;;;6.23;81.77
14790;BME280;7486;51.010;10.366;2023-04-28T09:59:36;97981.50;;;6.37;82.31
14790;BME280;7486;51.010;10.366;2023-04-28T10:02:23;97984.13;;;6.37;82.71
14790;BME280;7486;51.010;10.366;2023-04-28T10:05:27;97932.25;;;6.46;80.27
14790;BME280;7486;51.010;10.366;2023-04-28T10:08:12;97982.97;;;6.76;80.52
14790;BME280;7486;51.010;10.366;2023-04-28T10:11:01;97922.41;;;6.54;79.34
14790;BME280;7486;51.010;10.366;2023-04-28T10:13:47;97988.69;;;6.79;80.17
14790;BME280;7486;51.010;10.366;2023-04-28T10:16:34;97955.66;;;6.77;79.83
14790;BME280;7486;51.010;10.366;2023-04-28T10:19:20;97971.38;;;7.12;79.32
14790;BME280;7486;51.010;10.366;2023-04-28T10:28:07;97974.66;;;6.93;79.65
14790;BME280;7486;51.010;10.366;2023-04-28T10:31:20;97970.53;;;7.05;79.89
14790;BME280;7486;51.010;10.366;2023-04-28T10:34:20;97976.44;;;7.35;78.77
14790;BME280;7486;51.010;10.366;2023-04-28T10:37:06;97972.78;;;7.36;78.26
14790;BME280;7486;51.010;10.366;2023-04-28T10:40:36;97973.44;;;7.45;77.96
14790;BME280;7486;51.010;10.366;2023-04-28T10:46:15;97950.41;;;7.26;79.83
14790;BME280;7486;51.010;10.366;2023-04-28T10:49:00;97938.41;;;6.95;82.67
14790;BME280;7486;51.010;10.366;2023-04-28T10:51:46;97935.41;;;6.77;83.65
14790;BME280;7486;51.010;10.366;2023-04-28T10:54:31;97939.44;;;6.73;85.14
14790;BME280;7486;51.010;10.366;2023-04-28T10:57:17;97930.59;;;6.81;85.27
14790;BME280;7486;51.010;10.366;2023-04-28T11:00:30;97924.69;;;6.79;86.48
14790;BME280;7486;51.010;10.366;2023-04-28T11:03:48;97920.69;;;6.83;88.31
14790;BME280;7486;51.010;10.366;2023-04-28T11:06:41;97909.44;;;7.23;85.70
14790;BME280;7486;51.010;10.366;2023-04-28T11:12:18;97926.19;;;7.43;83.80
14790;BME280;7486;51.010;10.366;2023-04-28T11:15:12;97925.56;;;7.69;84.82
14790;BME280;7486;51.010;10.366;2023-04-28T11:18:00;97921.13;;;7.76;82.30
14790;BME280;7486;51.010;10.366;2023-04-28T11:20:52;97918.41;;;7.97;80.81
14790;BME280;7486;51.010;10.366;2023-04-28T11:23:38;97883.16;;;7.70;80.67
14790;BME280;7486;51.010;10.366;2023-04-28T11:26:24;97903.94;;;7.80;80.78
14790;BME280;7486;51.010;10.366;2023-04-28T11:29:10;97917.19;;;8.00;81.53
14790;BME280;7486;51.010;10.366;2023-04-28T11:31:55;97909.19;;;8.21;81.64
14790;BME280;7486;51.010;10.366;2023-04-28T11:34:41;97907.84;;;7.91;82.85
14790;BME280;7486;51.010;10.366;2023-04-28T11:37:26;97905.63;;;8.01;85.24
14790;BME280;7486;51.010;10.366;2023-04-28T11:40:12;97917.66;;;8.10;82.54
14790;BME280;7486;51.010;10.366;2023-04-28T11:42:58;97914.69;;;8.39;83.92
14790;BME280;7486;51.010;10.366;2023-04-28T11:45:46;97896.44;;;8.38;82.05
14790;BME280;7486;51.010;10.366;2023-04-28T11:48:31;97882.03;;;8.47;81.01
14790;BME280;7486;51.010;10.366;2023-04-28T11:51:37;97814.81;;;8.43;77.99
14790;BME280;7486;51.010;10.366;2023-04-28T11:54:24;97905.25;;;9.10;76.84
14790;BME280;7486;51.010;10.366;2023-04-28T11:57:20;97907.28;;;8.95;76.93
14790;BME280;7486;51.010;10.366;2023-04-28T12:00:15;97904.03;;;9.00;78.53
14790;BME280;7486;51.010;10.366;2023-04-28T12:03:06;97894.69;;;9.04;77.66
14790;BME280;7486;51.010;10.366;2023-04-28T12:05:54;97890.59;;;9.08;79.50
14790;BME280;7486;51.010;10.366;2023-04-28T12:08:40;97874.75;;;8.95;80.04
14790;BME280;7486;51.010;10.366;2023-04-28T12:11:25;97890.41;;;9.16;78.53
14790;BME280;7486;51.010;10.366;2023-04-28T12:14:10;97872.94;;;8.76;82.35
14790;BME280;7486;51.010;10.366;2023-04-28T12:16:55;97885.09;;;9.42;78.97
14790;BME280;7486;51.010;10.366;2023-04-28T12:19:44;97890.56;;;9.60;77.11
14790;BME280;7486;51.010;10.366;2023-04-28T12:22:29;97884.84;;;9.63;77.54
14790;BME280;7486;51.010;10.366;2023-04-28T12:25:18;97877.97;;;9.43;78.53
14790;BME280;7486;51.010;10.366;2023-04-28T12:28:05;97878.34;;;9.59;77.59
14790;BME280;7486;51.010;10.366;2023-04-28T12:31:02;97816.81;;;9.84;77.68
14790;BME280;7486;51.010;10.366;2023-04-28T12:33:48;97872.63;;;10.20;76.06
14790;BME280;7486;51.010;10.366;2023-04-28T12:36:33;97873.97;;;9.91;77.39
14790;BME280;7486;51.010;10.366;2023-04-28T12:39:18;97874.41;;;10.26;75.74
14790;BME280;7486;51.010;10.366;2023-04-28T12:42:05;97873.72;;;10.06;76.46
14790;BME280;7486;51.010;10.366;2023-04-28T12:44:50;97869.22;;;9.55;78.03
14790;BME280;7486;51.010;10.366;2023-04-28T12:47:36;97861.31;;;10.00;78.38
14790;BME280;7486;51.010;10.366;2023-04-28T12:50:22;97864.41;;;10.28;75.51
14790;BME280;7486;51.010;10.366;2023-04-28T12:53:07;97861.19;;;10.26;77.72
14790;BME280;7486;51.010;10.366;2023-04-28T12:55:52;97856.19;;;10.43;77.35
14790;BME280;7486;51.010;10.366;2023-04-28T12:58:38;97862.28;;;10.50;78.23
14790;BME280;7486;51.010;10.366;2023-04-28T13:01:23;97831.09;;;10.52;76.66
14790;BME280;7486;51.010;10.366;2023-04-28T13:04:09;97849.88;;;10.75;77.23
14790;BME280;7486;51.010;10.366;2023-04-28T13:06:55;97846.06;;;11.14;77.12
14790;BME280;7486;51.010;10.366;2023-04-28T13:09:41;97773.91;;;10.44;76.16
14790;BME280;7486;51.010;10.366;2023-04-28T13:12:27;97828.03;;;10.80;76.37
14790;BME280;7486;51.010;10.366;2023-04-28T13:15:12;97838.50;;;10.93;77.29
14790;BME280;7486;51.010;10.366;2023-04-28T13:17:57;97822.34;;;11.01;77.92
14790;BME280;7486;51.010;10.366;2023-04-28T13:20:43;97838.50;;;11.36;77.15
14790;BME280;7486;51.010;10.366;2023-04-28T13:23:28;97839.31;;;11.36;75.72
14790;BME280;7486;51.010;10.366;2023-04-28T13:26:14;97831.06;;;11.44;75.11
14790;BME280;7486;51.010;10.366;2023-04-28T13:28:59;97831.88;;;11.27;74.43
14790;BME280;7486;51.010;10.366;2023-04-28T13:31:45;97831.69;;;11.03;76.67
14790;BME280;7486;51.010;10.366;2023-04-28T13:34:30;97821.16;;;10.97;77.82
14790;BME280;7486;51.010;10.366;2023-04-28T13:37:16;97828.41;;;11.26;76.86
14790;BME280;7486;51.010;10.366;2023-04-28T13:40:01;97825.78;;;11.62;75.21
14790;BME280;7486;51.010;10.366;2023-04-28T13:42:47;97786.38;;;11.66;73.85
14790;BME280;7486;51.010;10.366;2023-04-28T13:45:32;97768.97;;;11.52;74.73
14790;BME280;7486;51.010;10.366;2023-04-28T13:48:17;97822.03;;;11.88;73.47
14790;BME280;7486;51.010;10.366;2023-04-28T13:51:03;97823.13;;;11.62;74.25
14790;BME280;7486;51.010;10.366;2023-04-28T13:53:49;97822.97;;;11.76;73.64
14790;BME280;7486;51.010;10.366;2023-04-28T13:56:34;97811.63;;;11.68;72.66
14790;BME280;7486;51.010;10.366;2023-04-28T13:59:20;97825.25;;;11.54;73.74
14790;BME280;7486;51.010;10.366;2023-04-28T14:02:05;97822.31;;;11.62;73.97
14790;BME280;7486;51.010;10.366;2023-04-28T14:04:51;97819.28;;;11.77;73.61
14790;BME280;7486;51.010;10.366;2023-04-28T14:07:37;97815.19;;;11.62;73.45
14790;BME280;7486;51.010;10.366;2023-04-28T14:10:22;97821.38;;;11.56;72.41
14790;BME280;7486;51.010;10.366;2023-04-28T14:13:08;97815.31;;;11.31;73.84
14790;BME280;7486;51.010;10.366;2023-04-28T14:15:53;97815.31;;;11.13;74.79
14790;BME280;7486;51.010;10.366;2023-04-28T14:18:44;97781.13;;;11.05;74.58
14790;BME280;7486;51.010;10.366;2023-04-28T14:21:29;97820.00;;;11.47;73.49
14790;BME280;7486;51.010;10.366;2023-04-28T14:24:15;97816.31;;;11.30;74.33
14790;BME280;7486;51.010;10.366;2023-04-28T14:27:00;97812.78;;;11.18;75.49
14790;BME280;7486;51.010;10.366;2023-04-28T14:29:45;97803.81;;;11.19;74.30
14790;BME280;7486;51.010;10.366;2023-04-28T14:32:31;97809.25;;;11.24;75.32
14790;BME280;7486;51.010;10.366;2023-04-28T14:35:16;97804.75;;;11.06;75.71
14790;BME280;7486;51.010;10.366;2023-04-28T14:38:02;97793.88;;;11.14;74.76
14790;BME280;7486;51.010;10.366;2023-04-28T14:40:47;97798.34;;;11.14;74.69
14790;BME280;7486;51.010;10.366;2023-04-28T14:43:33;97791.31;;;11.26;75.68
14790;BME280;7486;51.010;10.366;2023-04-28T14:46:18;97790.56;;;11.55;73.93
14790;BME280;7486;51.010;10.366;2023-04-28T14:49:04;97800.22;;;11.32;74.03
14790;BME280;7486;51.010;10.366;2023-04-28T14:51:50;97789.44;;;11.08;74.48
14790;BME280;7486;51.010;10.366;2023-04-28T14:54:35;97782.59;;;11.01;75.04
14790;BME280;7486;51.010;10.366;2023-04-28T14:57:21;97779.66;;;11.09;74.45
14790;BME280;7486;51.010;10.366;2023-04-28T15:00:08;97791.16;;;11.39;74.05
14790;BME280;7486;51.010;10.366;2023-04-28T15:02:53;97781.06;;;11.66;73.08
14790;BME280;7486;51.010;10.366;2023-04-28T15:05:38;97774.69;;;11.85;72.06
14790;BME280;7486;51.010;10.366;2023-04-28T15:08:24;97782.25;;;12.00;71.78